createdAt,value
2023-08-28T00:00:42.313Z,99853.17
2023-08-28T00:03:09.931Z,99856.97
2023-08-28T00:05:37.638Z,99859.41
2023-08-28T00:08:09.338Z,99860.11
2023-08-28T00:10:38.324Z,99862.43
2023-08-28T00:13:05.930Z,99863.25
2023-08-28T00:15:33.514Z,99862.17
2023-08-28T00:18:01.401Z,99867.53
2023-08-28T00:20:29.178Z,99875.14
2023-08-28T00:22:56.800Z,99874.02
2023-08-28T00:25:24.304Z,99872.70
2023-08-28T00:27:51.775Z,99874.64
2023-08-28T00:30:19.422Z,99878.90
2023-08-28T00:32:47.004Z,99885.31
2023-08-28T00:35:14.672Z,99884.83
2023-08-28T00:37:42.531Z,99881.41
2023-08-28T00:40:14.604Z,99880.89
2023-08-28T00:42:42.276Z,99876.98
2023-08-28T00:45:10.735Z,99869.56
2023-08-28T00:47:38.402Z,99874.77
2023-08-28T00:50:06.420Z,99881.82
2023-08-28T00:52:33.935Z,99881.98
2023-08-28T00:55:01.512Z,99882.70
2023-08-28T00:57:29.648Z,99884.40
2023-08-28T00:59:57.193Z,99883.67
2023-08-28T01:02:24.866Z,99881.21
2023-08-28T01:04:54.041Z,99883.88
2023-08-28T01:07:27.249Z,99880.36
2023-08-28T01:10:16.473Z,99880.45
2023-08-28T01:12:52.112Z,99883.73
2023-08-28T01:15:21.765Z,99881.50
2023-08-28T01:17:55.764Z,99882.27
2023-08-28T01:20:25.380Z,99877.27
2023-08-28T01:22:59.273Z,99871.73
2023-08-28T01:25:26.961Z,99874.35
2023-08-28T01:27:54.502Z,99873.30
2023-08-28T01:30:22.448Z,99873.53
2023-08-28T01:32:50.129Z,99877.54
2023-08-28T01:35:21.885Z,99878.58
2023-08-28T01:38:01.841Z,99877.91
2023-08-28T01:41:00.610Z,99878.46
2023-08-28T01:43:44.133Z,99885.04
2023-08-28T01:46:11.768Z,99882.22
2023-08-28T01:48:49.197Z,99884.31
2023-08-28T01:51:17.947Z,99880.55
2023-08-28T01:53:46.277Z,99883.38
2023-08-28T01:56:23.739Z,99884.89
2023-08-28T01:58:58.193Z,99869.73
2023-08-28T02:01:26.781Z,99873.73
2023-08-28T02:03:54.550Z,99875.86
2023-08-28T02:06:22.141Z,99871.34
2023-08-28T02:08:49.704Z,99866.49
2023-08-28T02:11:18.655Z,99871.61
2023-08-28T02:13:46.528Z,99869.36
2023-08-28T02:16:14.490Z,99871.70
2023-08-28T02:18:42.535Z,99877.57
2023-08-28T02:21:11.755Z,99876.16
2023-08-28T02:23:39.580Z,99877.20
2023-08-28T02:26:07.198Z,99872.89
2023-08-28T02:28:34.813Z,99868.65
2023-08-28T02:31:04.974Z,99869.45
2023-08-28T02:33:33.261Z,99865.95
2023-08-28T02:36:02.885Z,99863.77
2023-08-28T02:38:30.600Z,99863.52
2023-08-28T02:41:16.468Z,99869.16
2023-08-28T02:43:44.765Z,99867.49
2023-08-28T02:46:12.578Z,99865.95
2023-08-28T02:48:40.130Z,99864.75
2023-08-28T02:51:08.882Z,99863.02
2023-08-28T02:53:36.449Z,99865.48
2023-08-28T02:56:26.330Z,99862.94
2023-08-28T02:58:54.674Z,99856.80
2023-08-28T03:01:22.540Z,99858.23
2023-08-28T03:03:50.454Z,99856.02
2023-08-28T03:06:18.125Z,99859.20
2023-08-28T03:08:45.888Z,99865.27
2023-08-28T03:11:13.466Z,99865.58
2023-08-28T03:13:41.032Z,99860.13
2023-08-28T03:16:08.685Z,99854.14
2023-08-28T03:18:36.350Z,99860.55
2023-08-28T03:21:04.476Z,99857.40
2023-08-28T03:23:32.256Z,99854.48
2023-08-28T03:26:00.555Z,99852.41
2023-08-28T03:28:28.160Z,99856.46
2023-08-28T03:30:59.794Z,99854.03
2023-08-28T03:33:27.259Z,99851.05
2023-08-28T03:35:54.792Z,99847.71
2023-08-28T03:38:23.775Z,99845.11
2023-08-28T03:40:51.321Z,99842.11
2023-08-28T03:43:19.767Z,99839.17
2023-08-28T03:45:47.383Z,99838.38
2023-08-28T03:48:14.953Z,99833.38
2023-08-28T03:50:42.549Z,99831.95
2023-08-28T03:53:10.107Z,99835.80
2023-08-28T03:55:39.338Z,99835.02
2023-08-28T03:58:06.905Z,99834.40
2023-08-28T04:00:34.454Z,99833.65
2023-08-28T04:03:02.301Z,99833.32
2023-08-28T04:05:34.284Z,99833.59
2023-08-28T04:08:02.019Z,99831.95
2023-08-28T04:10:29.640Z,99826.84
2023-08-28T04:12:59.792Z,99822.50
2023-08-28T04:15:27.341Z,99823.29
2023-08-28T04:17:54.946Z,99819.68
2023-08-28T04:20:23.027Z,99818.73
2023-08-28T04:22:50.553Z,99816.01
2023-08-28T04:25:18.110Z,99820.02
2023-08-28T04:27:45.669Z,99816.85
2023-08-28T04:30:13.399Z,99816.31
2023-08-28T04:32:40.914Z,99813.55
2023-08-28T04:35:08.938Z,99815.76
2023-08-28T04:37:36.541Z,99817.77
2023-08-28T04:40:04.512Z,99816.65
2023-08-28T04:42:32.115Z,99813.63
2023-08-28T04:44:59.672Z,99812.73
2023-08-28T04:47:28.284Z,99816.33
2023-08-28T04:49:55.869Z,99811.13
2023-08-28T04:52:23.619Z,99814.48
2023-08-28T04:54:51.198Z,99814.62
2023-08-28T04:57:18.780Z,99810.03
2023-08-28T04:59:46.434Z,99810.75
2023-08-28T05:02:13.989Z,99812.25
2023-08-28T05:04:41.668Z,99808.58
2023-08-28T05:07:09.455Z,99805.90
2023-08-28T05:09:37.031Z,99799.44
2023-08-28T05:12:04.877Z,99802.92
2023-08-28T05:14:33.338Z,99800.60
2023-08-28T05:17:00.969Z,99801.39
2023-08-28T05:19:28.598Z,99791.17
2023-08-28T05:21:57.085Z,99790.90
2023-08-28T05:24:24.600Z,99791.52
2023-08-28T05:26:52.238Z,99794.36
2023-08-28T05:29:19.766Z,99791.23
2023-08-28T05:31:47.401Z,99794.63
2023-08-28T05:34:16.600Z,99793.64
2023-08-28T05:36:44.230Z,99794.98
2023-08-28T05:39:11.844Z,99793.39
2023-08-28T05:41:39.610Z,99798.95
2023-08-28T05:44:09.917Z,99802.94
2023-08-28T05:46:37.548Z,99802.92
2023-08-28T05:49:05.295Z,99799.08
2023-08-28T05:51:32.857Z,99797.26
2023-08-28T05:54:00.392Z,99799.21
2023-08-28T05:56:27.935Z,99797.04
2023-08-28T05:58:55.554Z,99795.23
2023-08-28T06:01:23.255Z,99793.27
2023-08-28T06:03:57.478Z,99789.88
2023-08-28T06:06:25.280Z,99788.83
2023-08-28T06:08:52.852Z,99790.92
2023-08-28T06:11:24.623Z,99787.13
2023-08-28T06:13:52.233Z,99782.55
2023-08-28T06:16:19.902Z,99785.98
2023-08-28T06:18:47.437Z,99787.77
2023-08-28T06:21:14.939Z,99784.42
2023-08-28T06:23:42.484Z,99787.23
2023-08-28T06:26:10.073Z,99789.16
2023-08-28T06:28:37.615Z,99787.23
2023-08-28T06:31:05.396Z,99786.48
2023-08-28T06:33:33.117Z,99793.25
2023-08-28T06:36:00.782Z,99790.34
2023-08-28T06:38:29.011Z,99791.54
2023-08-28T06:40:57.312Z,99787.92
2023-08-28T06:43:24.914Z,99784.60
2023-08-28T06:45:52.457Z,99785.54
2023-08-28T06:48:20.048Z,99788.18
2023-08-28T06:50:47.615Z,99789.25
2023-08-28T06:53:15.156Z,99788.95
2023-08-28T06:55:42.711Z,99786.17
2023-08-28T06:58:10.340Z,99789.23
2023-08-28T07:00:38.045Z,99786.85
2023-08-28T07:03:05.979Z,99785.75
2023-08-28T07:05:33.891Z,99785.64
2023-08-28T07:08:01.482Z,99786.44
2023-08-28T07:10:29.086Z,99785.55
2023-08-28T07:12:56.614Z,99784.98
2023-08-28T07:15:27.323Z,99783.70
2023-08-28T07:17:54.976Z,99784.52
2023-08-28T07:20:24.485Z,99786.25
2023-08-28T07:22:58.738Z,99788.71
2023-08-28T07:25:29.399Z,99788.23
2023-08-28T07:27:57.141Z,99787.63
2023-08-28T07:30:24.746Z,99789.00
2023-08-28T07:32:53.368Z,99781.48
2023-08-28T07:35:20.952Z,99780.34
2023-08-28T07:37:48.507Z,99778.77
2023-08-28T07:40:16.134Z,99776.39
2023-08-28T07:42:43.728Z,99774.00
2023-08-28T07:45:11.434Z,99775.89
2023-08-28T07:47:39.634Z,99778.33
2023-08-28T07:50:07.561Z,99778.40
2023-08-28T07:52:35.393Z,99773.90
2023-08-28T07:55:04.531Z,99770.39
2023-08-28T07:57:35.813Z,99768.21
2023-08-28T08:00:12.040Z,99768.02
2023-08-28T08:02:42.510Z,99759.77
2023-08-28T08:05:11.915Z,99755.70
2023-08-28T08:07:42.529Z,99751.14
2023-08-28T08:10:11.407Z,99749.68
2023-08-28T08:12:39.705Z,99748.66
2023-08-28T08:15:08.241Z,99745.06
2023-08-28T08:17:37.818Z,99743.30
2023-08-28T08:20:11.114Z,99742.65
2023-08-28T08:22:39.509Z,99744.74
2023-08-28T08:25:07.741Z,99750.46
2023-08-28T08:27:36.029Z,99752.49
2023-08-28T08:30:03.848Z,99755.77
2023-08-28T08:32:31.407Z,99760.21
2023-08-28T08:35:01.924Z,99761.40
2023-08-28T08:37:29.480Z,99760.09
2023-08-28T08:39:57.065Z,99754.89
2023-08-28T08:42:24.700Z,99751.14
2023-08-28T08:44:52.349Z,99749.67
2023-08-28T08:47:19.899Z,99750.12
2023-08-28T08:49:48.070Z,99745.58
2023-08-28T08:52:17.027Z,99743.58
2023-08-28T08:54:44.848Z,99740.20
2023-08-28T08:57:24.124Z,99736.00
2023-08-28T08:59:51.884Z,99735.40
2023-08-28T09:02:19.495Z,99736.77
2023-08-28T09:04:47.187Z,99735.36
2023-08-28T09:07:14.891Z,99733.41
2023-08-28T09:09:42.436Z,99733.17
2023-08-28T09:12:10.240Z,99735.45
2023-08-28T09:14:40.613Z,99738.73
2023-08-28T09:17:08.588Z,99740.71
2023-08-28T09:19:36.176Z,99739.45
2023-08-28T09:22:04.855Z,99743.30
2023-08-28T09:24:32.492Z,99743.86
2023-08-28T09:27:00.817Z,99742.84
2023-08-28T09:29:28.422Z,99745.56
2023-08-28T09:32:05.414Z,99748.08
2023-08-28T09:34:40.515Z,99747.02
2023-08-28T09:37:11.992Z,99746.34
2023-08-28T09:39:40.945Z,99741.56
2023-08-28T09:42:09.935Z,99742.06
2023-08-28T09:44:38.754Z,99742.60
2023-08-28T09:47:06.729Z,99738.16
2023-08-28T09:49:44.114Z,99734.17
2023-08-28T09:52:12.397Z,99734.95
2023-08-28T09:54:40.746Z,99738.11
2023-08-28T09:57:17.640Z,99739.55
2023-08-28T09:59:45.414Z,99736.55
2023-08-28T10:02:21.031Z,99736.71
2023-08-28T10:04:53.374Z,99734.73
2023-08-28T10:07:23.276Z,99731.16
2023-08-28T10:09:52.375Z,99728.98
2023-08-28T10:12:21.906Z,99729.70
2023-08-28T10:14:50.903Z,99730.94
2023-08-28T10:17:19.190Z,99726.10
2023-08-28T10:19:56.214Z,99721.80
2023-08-28T10:22:23.820Z,99724.19
2023-08-28T10:24:51.377Z,99723.30
2023-08-28T10:27:18.938Z,99722.75
2023-08-28T10:29:47.565Z,99724.95
2023-08-28T10:32:15.424Z,99729.98
2023-08-28T10:34:46.330Z,99726.67
2023-08-28T10:37:27.821Z,99731.20
2023-08-28T10:39:59.959Z,99730.61
2023-08-28T10:42:28.446Z,99727.05
2023-08-28T10:44:58.073Z,99727.48
2023-08-28T10:47:26.886Z,99724.84
2023-08-28T10:49:56.628Z,99723.95
2023-08-28T10:52:24.875Z,99724.58
2023-08-28T10:54:52.500Z,99716.78
2023-08-28T10:57:40.807Z,99711.75
2023-08-28T11:00:15.970Z,99707.75
2023-08-28T11:03:03.835Z,99706.51
2023-08-28T11:05:31.724Z,99701.43
2023-08-28T11:08:05.178Z,99695.65
2023-08-28T11:10:32.883Z,99694.92
2023-08-28T11:13:07.387Z,99696.69
2023-08-28T11:15:44.429Z,99697.05
2023-08-28T11:18:25.473Z,99695.12
2023-08-28T11:21:04.653Z,99690.77
2023-08-28T11:23:37.818Z,99693.04
2023-08-28T11:26:22.171Z,99686.55
2023-08-28T11:28:50.660Z,99685.64
2023-08-28T11:31:21.076Z,99684.06
2023-08-28T11:33:53.253Z,99683.79
2023-08-28T11:36:20.882Z,99677.23
2023-08-28T11:38:48.859Z,99678.05
2023-08-28T11:41:16.441Z,99675.33
2023-08-28T11:43:44.673Z,99669.59
2023-08-28T11:46:13.548Z,99665.70
2023-08-28T11:48:44.413Z,99664.52
2023-08-28T11:51:12.394Z,99663.13
2023-08-28T11:53:43.998Z,99663.02
2023-08-28T11:56:13.394Z,99662.80
2023-08-28T11:58:42.359Z,99663.50
2023-08-28T12:01:11.907Z,99666.71
2023-08-28T12:03:41.394Z,99663.09
2023-08-28T12:06:10.097Z,99665.57
2023-08-28T12:08:38.287Z,99662.16
2023-08-28T12:11:10.230Z,99656.57
2023-08-28T12:13:38.420Z,99655.08
2023-08-28T12:16:07.877Z,99653.30
2023-08-28T12:18:45.452Z,99653.38
2023-08-28T12:21:13.010Z,99653.38
2023-08-28T12:23:48.344Z,99654.36
2023-08-28T12:26:17.868Z,99654.64
2023-08-28T12:28:47.630Z,99648.98
2023-08-28T12:31:16.120Z,99651.08
2023-08-28T12:33:44.478Z,99651.50
2023-08-28T12:36:12.897Z,99649.42
2023-08-28T12:38:50.718Z,99651.95
2023-08-28T12:41:19.061Z,99649.02
2023-08-28T12:43:47.040Z,99647.34
2023-08-28T12:46:15.426Z,99648.42
2023-08-28T12:48:44.890Z,99648.40
2023-08-28T12:51:12.430Z,99644.93
2023-08-28T12:53:40.363Z,99642.48
2023-08-28T12:56:08.309Z,99642.11
2023-08-28T12:58:35.865Z,99642.58
2023-08-28T13:01:05.597Z,99642.30
2023-08-28T13:03:35.729Z,99638.95
2023-08-28T13:06:03.600Z,99636.68
2023-08-28T13:08:31.251Z,99636.94
2023-08-28T13:10:58.860Z,99634.98
2023-08-28T13:13:28.016Z,99635.20
2023-08-28T13:15:56.341Z,99631.81
2023-08-28T13:18:23.997Z,99630.75
2023-08-28T13:20:51.601Z,99629.90
2023-08-28T13:23:19.161Z,99629.10
2023-08-28T13:25:47.293Z,99632.46
2023-08-28T13:28:15.778Z,99634.23
2023-08-28T13:30:43.485Z,99632.73
2023-08-28T13:33:11.483Z,99629.24
2023-08-28T13:35:39.102Z,99621.72
2023-08-28T13:38:06.933Z,99621.05
2023-08-28T13:40:35.163Z,99620.26
2023-08-28T13:43:06.142Z,99617.88
2023-08-28T13:45:34.928Z,99614.58
2023-08-28T13:48:02.708Z,99611.71
2023-08-28T13:50:30.338Z,99610.85
2023-08-28T13:52:58.016Z,99611.58
2023-08-28T13:55:25.583Z,99608.71
2023-08-28T13:57:53.241Z,99610.63
2023-08-28T14:00:23.171Z,99608.98
2023-08-28T14:02:50.878Z,99603.09
2023-08-28T14:05:19.063Z,99607.95
2023-08-28T14:07:46.711Z,99606.10
2023-08-28T14:10:14.313Z,99599.61
2023-08-28T14:12:41.968Z,99597.14
2023-08-28T14:15:09.787Z,99595.00
2023-08-28T14:17:37.419Z,99595.73
2023-08-28T14:20:06.067Z,99598.98
2023-08-28T14:22:33.982Z,99592.48
2023-08-28T14:25:01.633Z,99589.51
2023-08-28T14:27:35.189Z,99588.39
2023-08-28T14:30:14.458Z,99584.41
2023-08-28T14:32:42.048Z,99588.40
2023-08-28T14:35:10.944Z,99584.88
2023-08-28T14:37:38.527Z,99584.04
2023-08-28T14:40:07.197Z,99592.64
2023-08-28T14:42:35.033Z,99592.84
2023-08-28T14:45:02.617Z,99592.94
2023-08-28T14:47:30.302Z,99593.13
2023-08-28T14:49:57.896Z,99592.89
2023-08-28T14:52:28.143Z,99597.59
2023-08-28T14:54:55.879Z,99598.98
2023-08-28T14:57:23.524Z,99596.64
2023-08-28T14:59:51.146Z,99599.15
2023-08-28T15:02:19.004Z,99595.96
2023-08-28T15:04:47.878Z,99600.34
2023-08-28T15:07:16.841Z,99600.44
2023-08-28T15:09:44.467Z,99597.15
2023-08-28T15:12:13.164Z,99593.29
2023-08-28T15:14:42.382Z,99597.39
2023-08-28T15:17:11.594Z,99591.04
2023-08-28T15:19:39.408Z,99591.86
2023-08-28T15:22:07.079Z,99591.36
2023-08-28T15:24:35.965Z,99590.35
2023-08-28T15:27:04.476Z,99589.32
2023-08-28T15:29:32.181Z,99590.20
2023-08-28T15:31:59.673Z,99587.95
2023-08-28T15:34:27.169Z,99589.41
2023-08-28T15:36:55.189Z,99587.14
2023-08-28T15:39:22.808Z,99585.77
2023-08-28T15:41:50.471Z,99588.62
2023-08-28T15:44:18.214Z,99583.41
2023-08-28T15:46:45.862Z,99587.29
2023-08-28T15:49:14.577Z,99588.50
2023-08-28T15:51:42.604Z,99590.44
2023-08-28T15:54:10.154Z,99589.01
2023-08-28T15:56:37.658Z,99593.36
2023-08-28T15:59:14.319Z,99598.11
2023-08-28T16:01:43.215Z,99602.26
2023-08-28T16:04:11.151Z,99605.92
2023-08-28T16:06:42.045Z,99604.79
2023-08-28T16:09:13.563Z,99605.26
2023-08-28T16:11:48.282Z,99604.44
2023-08-28T16:14:16.133Z,99606.50
2023-08-28T16:16:43.941Z,99610.79
2023-08-28T16:19:14.993Z,99611.16
2023-08-28T16:21:42.690Z,99611.13
2023-08-28T16:24:10.231Z,99612.89
2023-08-28T16:26:37.809Z,99617.23
2023-08-28T16:29:05.452Z,99620.71
2023-08-28T16:31:33.117Z,99620.05
2023-08-28T16:34:01.142Z,99620.98
2023-08-28T16:36:29.086Z,99624.13
2023-08-28T16:39:00.223Z,99624.27
2023-08-28T16:41:27.954Z,99622.48
2023-08-28T16:43:55.553Z,99623.09
2023-08-28T16:46:23.208Z,99623.51
2023-08-28T16:48:51.201Z,99623.74
2023-08-28T16:51:18.836Z,99623.69
2023-08-28T16:53:46.464Z,99628.38
2023-08-28T16:56:14.073Z,99628.13
2023-08-28T16:58:41.685Z,99628.25
2023-08-28T17:01:09.301Z,99632.55
2023-08-28T17:03:36.922Z,99634.33
2023-08-28T17:06:04.607Z,99636.36
2023-08-28T17:08:32.180Z,99643.02
2023-08-28T17:11:01.133Z,99641.61
2023-08-28T17:13:28.691Z,99646.19
2023-08-28T17:15:56.733Z,99650.89
2023-08-28T17:18:24.436Z,99652.17
2023-08-28T17:20:53.198Z,99651.34
2023-08-28T17:23:20.785Z,99654.81
2023-08-28T17:25:48.458Z,99653.24
2023-08-28T17:28:16.881Z,99657.70
2023-08-28T17:30:44.513Z,99662.56
2023-08-28T17:33:12.106Z,99664.15
2023-08-28T17:35:39.701Z,99665.52
2023-08-28T17:38:07.401Z,99668.23
2023-08-28T17:40:34.986Z,99670.27
2023-08-28T17:43:02.904Z,99671.26
2023-08-28T17:45:30.781Z,99676.55
2023-08-28T17:47:58.375Z,99674.84
2023-08-28T17:50:26.575Z,99677.79
2023-08-28T17:52:54.396Z,99682.14
2023-08-28T17:55:21.982Z,99687.27
2023-08-28T17:57:49.584Z,99695.89
2023-08-28T18:00:17.401Z,99701.14
2023-08-28T18:03:00.074Z,99700.15
2023-08-28T18:05:28.593Z,99707.93
2023-08-28T18:07:56.794Z,99713.92
2023-08-28T18:10:24.536Z,99714.08
2023-08-28T18:12:52.076Z,99715.41
2023-08-28T18:15:22.003Z,99719.42
2023-08-28T18:17:51.153Z,99723.52
2023-08-28T18:20:21.438Z,99730.14
2023-08-28T18:22:49.160Z,99731.24
2023-08-28T18:25:16.796Z,99725.22
2023-08-28T18:28:00.605Z,99725.48
2023-08-28T18:30:31.857Z,99727.48
2023-08-28T18:33:00.772Z,99728.20
2023-08-28T18:35:28.413Z,99729.88
2023-08-28T18:37:58.693Z,99731.95
2023-08-28T18:40:26.998Z,99734.16
2023-08-28T18:42:55.633Z,99738.84
2023-08-28T18:45:25.176Z,99740.38
2023-08-28T18:47:54.570Z,99740.49
2023-08-28T18:50:24.075Z,99744.06
2023-08-28T18:52:51.715Z,99746.83
2023-08-28T18:55:31.922Z,99747.55
2023-08-28T18:58:02.910Z,99749.98
2023-08-28T19:00:31.805Z,99746.78
2023-08-28T19:02:59.679Z,99743.75
2023-08-28T19:05:27.458Z,99747.05
2023-08-28T19:07:59.297Z,99748.16
2023-08-28T19:10:40.217Z,99743.72
2023-08-28T19:13:08.201Z,99749.16
2023-08-28T19:15:35.856Z,99752.94
2023-08-28T19:18:03.846Z,99751.94
2023-08-28T19:20:38.523Z,99751.26
2023-08-28T19:23:12.949Z,99755.42
2023-08-28T19:25:40.573Z,99762.02
2023-08-28T19:28:08.127Z,99764.18
2023-08-28T19:30:35.782Z,99767.58
2023-08-28T19:33:04.395Z,99766.83
2023-08-28T19:35:32.028Z,99770.98
2023-08-28T19:38:00.167Z,99771.84
2023-08-28T19:40:27.839Z,99775.16
2023-08-28T19:42:56.028Z,99777.36
2023-08-28T19:45:23.654Z,99778.33
2023-08-28T19:47:52.628Z,99781.79
2023-08-28T19:50:22.734Z,99784.31
2023-08-28T19:52:50.403Z,99785.17
2023-08-28T19:55:18.019Z,99785.11
2023-08-28T19:57:45.579Z,99786.08
2023-08-28T20:00:20.651Z,99785.38
2023-08-28T20:02:49.237Z,99791.52
2023-08-28T20:05:16.871Z,99791.06
2023-08-28T20:07:45.172Z,99790.05
2023-08-28T20:10:12.776Z,99790.90
2023-08-28T20:12:40.313Z,99799.70
2023-08-28T20:15:08.508Z,99801.05
2023-08-28T20:17:36.143Z,99799.96
2023-08-28T20:20:07.447Z,99800.36
2023-08-28T20:22:34.876Z,99801.33
2023-08-28T20:25:02.435Z,99802.27
2023-08-28T20:27:30.301Z,99811.27
2023-08-28T20:29:57.801Z,99808.23
2023-08-28T20:32:25.348Z,99806.46
2023-08-28T20:34:52.909Z,99806.94
2023-08-28T20:37:20.497Z,99805.77
2023-08-28T20:39:48.150Z,99807.17
2023-08-28T20:42:15.660Z,99807.23
2023-08-28T20:44:43.263Z,99811.01
2023-08-28T20:47:10.987Z,99811.39
2023-08-28T20:49:38.616Z,99808.57
2023-08-28T20:52:06.219Z,99811.23
2023-08-28T20:54:33.893Z,99813.34
2023-08-28T20:57:01.393Z,99816.79
2023-08-28T20:59:29.186Z,99817.78
2023-08-28T21:01:57.100Z,99819.11
2023-08-28T21:04:25.129Z,99821.37
2023-08-28T21:06:52.658Z,99819.33
2023-08-28T21:09:20.223Z,99821.89
2023-08-28T21:11:47.838Z,99820.18
2023-08-28T21:14:15.435Z,99820.23
2023-08-28T21:16:43.012Z,99822.89
2023-08-28T21:19:18.008Z,99825.98
2023-08-28T21:21:45.657Z,99821.34
2023-08-28T21:24:13.188Z,99816.42
2023-08-28T21:26:40.817Z,99820.89
2023-08-28T21:29:08.407Z,99818.52
2023-08-28T21:31:35.957Z,99818.84
2023-08-28T21:34:03.525Z,99820.86
2023-08-28T21:36:31.146Z,99817.89
2023-08-28T21:38:58.735Z,99824.29
2023-08-28T21:41:26.228Z,99826.09
2023-08-28T21:43:53.893Z,99822.50
2023-08-28T21:46:21.524Z,99826.95
2023-08-28T21:48:49.036Z,99827.09
2023-08-28T21:51:35.372Z,99825.27
2023-08-28T21:54:21.568Z,99818.08
2023-08-28T21:57:08.290Z,99812.25
2023-08-28T21:59:54.417Z,99812.52
2023-08-28T22:02:40.888Z,99812.10
2023-08-28T22:05:27.114Z,99811.54
2023-08-28T22:07:54.595Z,99812.55
2023-08-28T22:10:26.015Z,99811.63
2023-08-28T22:13:16.613Z,99808.20
2023-08-28T22:15:44.538Z,99808.29
2023-08-28T22:18:12.538Z,99806.52
2023-08-28T22:20:43.280Z,99805.50
2023-08-28T22:23:12.098Z,99809.02
2023-08-28T22:25:43.264Z,99806.06
2023-08-28T22:28:12.864Z,99806.29
2023-08-28T22:30:42.300Z,99806.79
2023-08-28T22:33:09.991Z,99809.77
2023-08-28T22:35:37.659Z,99809.70
2023-08-28T22:38:05.985Z,99807.59
2023-08-28T22:40:34.133Z,99814.02
2023-08-28T22:43:01.629Z,99810.11
2023-08-28T22:45:29.217Z,99808.02
2023-08-28T22:47:56.829Z,99806.90
2023-08-28T22:50:24.472Z,99805.46
2023-08-28T22:52:52.079Z,99802.31
2023-08-28T22:55:19.820Z,99809.03
2023-08-28T22:57:47.913Z,99812.14
2023-08-28T23:00:15.732Z,99816.17
2023-08-28T23:02:43.732Z,99813.71
2023-08-28T23:05:11.828Z,99812.48
2023-08-28T23:07:39.533Z,99812.60
2023-08-28T23:10:08.404Z,99813.80
2023-08-28T23:12:35.971Z,99811.62
2023-08-28T23:15:03.863Z,99812.88
2023-08-28T23:17:31.670Z,99807.91
2023-08-28T23:19:59.519Z,99809.13
2023-08-28T23:22:27.100Z,99808.98
2023-08-28T23:24:54.717Z,99810.66
2023-08-28T23:27:22.319Z,99812.18
2023-08-28T23:29:49.865Z,99813.66
2023-08-28T23:32:17.438Z,99812.13
2023-08-28T23:34:45.653Z,99813.41
2023-08-28T23:37:13.317Z,99809.80
2023-08-28T23:39:40.955Z,99808.95
2023-08-28T23:42:08.498Z,99802.14
2023-08-28T23:44:36.102Z,99800.73
2023-08-28T23:47:03.696Z,99805.35
2023-08-28T23:49:31.269Z,99807.70
2023-08-28T23:51:58.851Z,99816.81
2023-08-28T23:54:26.447Z,99812.61
2023-08-28T23:56:53.975Z,99815.69
2023-08-28T23:59:21.568Z,99808.38
